Time;durP1;ratioP1;P1;durP2;ratioP2;P2;SDS_P1;SDS_P2;PMS_P1;PMS_P2;Temp;Humidity;BMP_temperature;BMP_pressure;BME280_temperature;BME280_humidity;BME280_pressure;Samples;Min_cycle;Max_cycle;Signal;HPM_P1;HPM_P2
2023/07/01 00:01:33;;;;;;;;;;;;;;;18.17;54.46;100800.53;5126054;27;20345;-57
2023/07/01 00:03:58;;;;;;;;;;;;;;;18.21;53.77;100795.31;5127061;27;19915;-58
2023/07/01 00:06:23;;;;;;;;;;;;;;;18.18;53.88;100792.72;5128341;27;19926;-57
2023/07/01 00:08:48;;;;;;;;;;;;;;;18.21;53.92;100781.44;5115419;27;19977;-56
2023/07/01 00:11:14;;;;;;;;;;;;;;;18.18;54.25;100778.84;5115464;27;20285;-58
2023/07/01 00:13:39;;;;;;;;;;;;;;;18.17;54.18;100772.78;5117389;27;19928;-56
2023/07/01 00:16:04;;;;;;;;;;;;;;;18.18;54.40;100771.91;5113970;27;20359;-57
2023/07/01 00:18:30;;;;;;;;;;;;;;;18.19;53.99;100763.22;5128994;27;19929;-57
2023/07/01 00:20:55;;;;;;;;;;;;;;;18.26;54.15;100764.09;5101366;28;19916;-56
2023/07/01 00:23:20;;;;;;;;;;;;;;;18.18;54.42;100758.03;5113842;27;19916;-58
2023/07/01 00:25:46;;;;;;;;;;;;;;;18.17;54.51;100758.91;5121006;27;19969;-56
2023/07/01 00:28:11;;;;;;;;;;;;;;;18.19;54.56;100749.34;5115222;27;19924;-57
2023/07/01 00:30:37;;;;;;;;;;;;;;;18.16;54.53;100750.25;5091069;28;19930;-57
2023/07/01 00:33:03;;;;;;;;;;;;;;;18.16;54.62;100744.16;5101611;28;19930;-57
2023/07/01 00:35:28;;;;;;;;;;;;;;;18.17;54.93;100741.56;5103508;28;20077;-56
2023/07/01 00:37:53;;;;;;;;;;;;;;;18.15;54.91;100740.72;5104709;28;19991;-57
2023/07/01 00:40:19;;;;;;;;;;;;;;;18.16;55.19;100739.81;5103451;28;19922;-56
2023/07/01 00:42:45;;;;;;;;;;;;;;;18.15;55.33;100737.25;5102121;28;19920;-57
2023/07/01 00:45:10;;;;;;;;;;;;;;;18.15;55.30;100734.63;5101719;28;19935;-56
2023/07/01 00:47:37;;;;;;;;;;;;;;;18.15;55.30;100725.09;5103139;28;19920;-57
2023/07/01 00:50:03;;;;;;;;;;;;;;;18.15;55.60;100735.50;5100632;28;19916;-57
2023/07/01 00:52:28;;;;;;;;;;;;;;;18.13;55.80;100723.34;5103781;28;19924;-57
2023/07/01 00:54:53;;;;;;;;;;;;;;;18.12;56.06;100724.22;5104570;28;19916;-57
2023/07/01 00:57:19;;;;;;;;;;;;;;;18.11;56.31;100725.09;5101370;28;20386;-57
2023/07/01 00:59:44;;;;;;;;;;;;;;;18.11;56.40;100722.50;5103188;28;19947;-56
2023/07/01 01:02:13;;;;;;;;;;;;;;;18.16;56.08;100718.16;5081767;28;19955;-56
2023/07/01 01:04:44;;;;;;;;;;;;;;;18.13;57.34;100724.22;5101054;28;19922;-55
2023/07/01 01:07:30;;;;;;;;;;;;;;;18.07;58.19;100708.63;5101765;28;20382;-56
2023/07/01 01:09:57;;;;;;;;;;;;;;;18.05;59.18;100707.78;5101604;28;19919;-56
2023/07/01 01:12:23;;;;;;;;;;;;;;;18.03;59.03;100712.16;5079780;28;20374;-57
2023/07/01 01:14:49;;;;;;;;;;;;;;;17.99;59.35;100709.56;5091892;28;19912;-57
2023/07/01 01:17:16;;;;;;;;;;;;;;;18.02;59.25;100715.63;5093289;28;19927;-57
2023/07/01 01:19:50;;;;;;;;;;;;;;;17.99;58.73;100696.56;5094939;28;19916;-56
2023/07/01 01:22:17;;;;;;;;;;;;;;;17.95;59.15;100695.69;5102444;28;19916;-56
2023/07/01 01:24:44;;;;;;;;;;;;;;;17.92;60.08;100698.31;5100116;28;19951;-56
2023/07/01 01:27:15;;;;;;;;;;;;;;;17.90;60.86;100687.94;5100673;28;19919;-56
2023/07/01 01:29:40;;;;;;;;;;;;;;;17.90;59.46;100685.31;5100654;27;19923;-56
2023/07/01 01:32:07;;;;;;;;;;;;;;;17.89;60.79;100690.50;5121715;27;19973;-56
2023/07/01 01:34:33;;;;;;;;;;;;;;;17.87;61.12;100682.72;5124332;27;19911;-57
2023/07/01 01:37:01;;;;;;;;;;;;;;;17.88;61.27;100681.00;5123945;27;20280;-56
2023/07/01 01:39:29;;;;;;;;;;;;;;;17.85;61.83;100675.81;5102934;28;19912;-56
2023/07/01 01:42:00;;;;;;;;;;;;;;;17.83;62.10;100674.94;5122478;27;19954;-56
2023/07/01 01:44:35;;;;;;;;;;;;;;;17.83;62.40;100674.94;5121666;27;19915;-56
2023/07/01 01:47:02;;;;;;;;;;;;;;;17.84;61.63;100671.50;5117260;27;19969;-58
2023/07/01 01:49:28;;;;;;;;;;;;;;;17.81;63.23;100666.28;5115693;27;19916;-56
2023/07/01 01:51:54;;;;;;;;;;;;;;;17.80;63.21;100665.44;5112922;27;19920;-56
2023/07/01 01:54:19;;;;;;;;;;;;;;;17.82;64.33;100658.47;5120279;27;19968;-57
2023/07/01 01:56:44;;;;;;;;;;;;;;;17.83;63.96;100661.94;5120430;27;20006;-56
2023/07/01 01:59:10;;;;;;;;;;;;;;;17.81;62.55;100653.28;5119680;27;19919;-57
2023/07/01 02:01:36;;;;;;;;;;;;;;;17.75;64.28;100650.72;5117451;27;19945;-56
2023/07/01 02:04:01;;;;;;;;;;;;;;;17.75;65.27;100661.13;5116214;27;19981;-57
2023/07/01 02:06:26;;;;;;;;;;;;;;;17.70;65.80;100648.94;5121555;27;19916;-56
2023/07/01 02:08:51;;;;;;;;;;;;;;;17.70;64.11;100651.56;5117734;27;19924;-56
2023/07/01 02:11:17;;;;;;;;;;;;;;;17.68;66.20;100648.09;5118545;27;19911;-56
2023/07/01 02:13:42;;;;;;;;;;;;;;;17.62;67.45;100649.88;5120851;27;19930;-57
2023/07/01 02:16:07;;;;;;;;;;;;;;;17.57;70.84;100642.09;5121480;27;19920;-56
2023/07/01 02:18:32;;;;;;;;;;;;;;;17.39;72.79;100629.16;5124390;27;20395;-56
2023/07/01 02:20:58;;;;;;;;;;;;;;;17.29;75.50;100638.75;5126272;27;19922;-56
2023/07/01 02:23:23;;;;;;;;;;;;;;;17.25;74.81;100633.53;5108756;27;19915;-57
2023/07/01 02:25:48;;;;;;;;;;;;;;;17.20;80.16;100632.69;5125565;27;19915;-56
2023/07/01 02:28:13;;;;;;;;;;;;;;;17.09;80.68;100630.09;5084644;28;19932;-58
2023/07/01 02:30:39;;;;;;;;;;;;;;;17.01;82.17;100626.69;5104619;28;19939;-57
2023/07/01 02:33:04;;;;;;;;;;;;;;;16.98;82.02;100621.47;5099576;28;19958;-57
2023/07/01 02:35:29;;;;;;;;;;;;;;;16.87;81.02;100616.31;5103712;28;19912;-57
2023/07/01 02:37:55;;;;;;;;;;;;;;;16.81;86.17;100613.72;5102347;28;20001;-56
2023/07/01 02:40:20;;;;;;;;;;;;;;;16.68;87.08;100619.75;5102785;28;19923;-56
2023/07/01 02:42:45;;;;;;;;;;;;;;;16.72;85.93;100608.53;5099615;28;20427;-56
2023/07/01 02:45:10;;;;;;;;;;;;;;;16.69;88.44;100616.31;5104985;28;19923;-56
2023/07/01 02:47:36;;;;;;;;;;;;;;;16.54;88.01;100612.84;5098537;28;19979;-57
2023/07/01 02:50:01;;;;;;;;;;;;;;;16.53;90.45;100615.44;5102686;28;19916;-55
2023/07/01 02:52:26;;;;;;;;;;;;;;;16.47;87.61;100603.31;5102025;28;20381;-57
2023/07/01 02:54:51;;;;;;;;;;;;;;;16.50;91.43;100600.75;5096673;28;19916;-57
2023/07/01 02:57:17;;;;;;;;;;;;;;;16.50;90.38;100607.63;5087808;28;19999;-55
2023/07/01 02:59:42;;;;;;;;;;;;;;;16.45;91.48;100605.06;5099552;28;19928;-56
2023/07/01 03:02:08;;;;;;;;;;;;;;;16.43;93.30;100600.72;5104493;28;19950;-57
2023/07/01 03:04:33;;;;;;;;;;;;;;;16.41;89.79;100598.13;5102365;28;19951;-57
2023/07/01 03:06:58;;;;;;;;;;;;;;;16.42;94.23;100604.19;5104161;28;19917;-57
2023/07/01 03:09:24;;;;;;;;;;;;;;;16.38;93.25;100592.97;5102716;28;20384;-57
2023/07/01 03:11:49;;;;;;;;;;;;;;;16.40;93.99;100596.41;5100498;28;20034;-55
2023/07/01 03:14:14;;;;;;;;;;;;;;;16.36;94.48;100590.34;5102845;28;20289;-56
2023/07/01 03:16:42;;;;;;;;;;;;;;;16.24;94.14;100582.56;5098482;28;19924;-57
2023/07/01 03:19:08;;;;;;;;;;;;;;;16.27;95.41;100585.16;5076554;28;20386;-57
2023/07/01 03:21:34;;;;;;;;;;;;;;;16.27;96.60;100589.50;5099885;28;19916;-57
2023/07/01 03:23:59;;;;;;;;;;;;;;;16.23;97.80;100574.78;5106341;28;19939;-57
2023/07/01 03:26:24;;;;;;;;;;;;;;;16.19;99.08;100575.63;5107792;28;19920;-56
2023/07/01 03:28:50;;;;;;;;;;;;;;;16.09;100.00;100578.25;5098201;28;19924;-55
2023/07/01 03:31:15;;;;;;;;;;;;;;;16.15;99.69;100579.97;5098220;28;20421;-57
2023/07/01 03:33:41;;;;;;;;;;;;;;;16.11;100.00;100573.03;5100301;28;19916;-57
2023/07/01 03:36:06;;;;;;;;;;;;;;;16.09;98.20;100567.88;5102338;28;20003;-56
2023/07/01 03:38:31;;;;;;;;;;;;;;;16.13;98.75;100560.94;5099918;28;19962;-57
2023/07/01 03:40:57;;;;;;;;;;;;;;;16.11;99.77;100564.41;5101817;28;19969;-57
2023/07/01 03:43:22;;;;;;;;;;;;;;;16.05;99.53;100560.94;5101585;28;19923;-56
2023/07/01 03:45:47;;;;;;;;;;;;;;;16.06;100.00;100554.03;5101380;28;19920;-58
2023/07/01 03:48:12;;;;;;;;;;;;;;;16.05;100.00;100566.13;5101876;28;19930;-56
2023/07/01 03:50:38;;;;;;;;;;;;;;;16.01;100.00;100561.78;5106645;28;20396;-57
2023/07/01 03:53:03;;;;;;;;;;;;;;;15.93;100.00;100549.69;5103623;28;19923;-55
2023/07/01 03:55:28;;;;;;;;;;;;;;;15.86;100.00;100551.41;5104486;28;20366;-56
2023/07/01 03:57:53;;;;;;;;;;;;;;;15.89;100.00;100553.13;5096750;28;20060;-57
2023/07/01 04:00:19;;;;;;;;;;;;;;;15.82;100.00;100547.06;5075208;28;19956;-57
2023/07/01 04:02:45;;;;;;;;;;;;;;;15.75;100.00;100547.94;5109418;28;19918;-58
2023/07/01 04:05:11;;;;;;;;;;;;;;;15.74;100.00;100549.66;5108002;28;19920;-56
2023/07/01 04:07:40;;;;;;;;;;;;;;;15.71;100.00;100546.19;5098791;28;19923;-57
2023/07/01 04:10:05;;;;;;;;;;;;;;;15.70;100.00;100540.13;5099660;28;19969;-57
2023/07/01 04:12:34;;;;;;;;;;;;;;;15.65;100.00;100536.69;5097779;28;19971;-57
2023/07/01 04:15:00;;;;;;;;;;;;;;;15.50;100.00;100529.69;5098134;28;19916;-57
2023/07/01 04:17:25;;;;;;;;;;;;;;;15.48;100.00;100531.44;5098141;28;19962;-56
2023/07/01 04:19:50;;;;;;;;;;;;;;;15.44;100.00;100523.63;5095279;28;20039;-57
2023/07/01 04:22:16;;;;;;;;;;;;;;;15.41;100.00;100523.63;5102010;28;19919;-56
2023/07/01 04:24:41;;;;;;;;;;;;;;;15.45;100.00;100523.63;5082112;28;19916;-46
2023/07/01 04:27:06;;;;;;;;;;;;;;;15.34;100.00;100514.97;5109720;28;20370;-46
2023/07/01 04:29:31;;;;;;;;;;;;;;;15.32;100.00;100519.28;5094219;28;19923;-45
2023/07/01 04:31:57;;;;;;;;;;;;;;;15.28;100.00;100525.31;5082656;28;20335;-46
2023/07/01 04:34:22;;;;;;;;;;;;;;;15.27;100.00;100515.81;5083623;28;20366;-46
2023/07/01 04:36:47;;;;;;;;;;;;;;;15.28;100.00;100517.53;5081147;28;20398;-44
2023/07/01 04:39:14;;;;;;;;;;;;;;;15.24;100.00;100505.44;5085240;28;20302;-45
2023/07/01 04:41:39;;;;;;;;;;;;;;;15.26;100.00;100506.31;5081832;28;19912;-46
2023/07/01 04:44:06;;;;;;;;;;;;;;;15.28;100.00;100502.84;5088052;28;20259;-46
2023/07/01 04:46:31;;;;;;;;;;;;;;;15.24;100.00;100500.28;5092050;28;20381;-45
2023/07/01 04:48:57;;;;;;;;;;;;;;;15.23;100.00;100502.00;5099146;28;19920;-45
2023/07/01 04:51:22;;;;;;;;;;;;;;;15.26;100.00;100498.53;5087226;28;19915;-45
2023/07/01 04:53:47;;;;;;;;;;;;;;;15.25;100.00;100502.00;5106010;28;19952;-43
2023/07/01 04:56:13;;;;;;;;;;;;;;;15.25;100.00;100495.09;5090015;28;20302;-46
2023/07/01 04:58:38;;;;;;;;;;;;;;;15.22;100.00;100496.78;5085451;28;20406;-46
2023/07/01 05:01:03;;;;;;;;;;;;;;;15.24;100.00;100495.09;5086389;28;20370;-46
2023/07/01 05:03:28;;;;;;;;;;;;;;;15.25;100.00;100486.47;5093654;28;20284;-44
2023/07/01 05:05:53;;;;;;;;;;;;;;;15.26;100.00;100483.00;5098663;28;19924;-46
2023/07/01 05:08:19;;;;;;;;;;;;;;;15.29;100.00;100493.38;5083921;28;20014;-47
2023/07/01 05:10:44;;;;;;;;;;;;;;;15.33;100.00;100489.06;5092483;28;19994;-45
2023/07/01 05:13:10;;;;;;;;;;;;;;;15.38;100.00;100493.41;5091196;28;19969;-47
2023/07/01 05:15:37;;;;;;;;;;;;;;;15.37;100.00;100493.41;5078291;28;20042;-46
2023/07/01 05:18:02;;;;;;;;;;;;;;;15.38;100.00;100490.81;5062859;28;19918;-45
2023/07/01 05:20:28;;;;;;;;;;;;;;;15.37;100.00;100481.31;5083319;28;19999;-45
2023/07/01 05:22:53;;;;;;;;;;;;;;;15.51;100.00;100495.16;5091366;28;20056;-46
2023/07/01 05:25:18;;;;;;;;;;;;;;;15.46;100.00;100489.09;5080567;28;19916;-44
2023/07/01 05:27:43;;;;;;;;;;;;;;;15.45;100.00;100491.69;5086373;28;19916;-44
2023/07/01 05:30:09;;;;;;;;;;;;;;;15.48;100.00;100483.94;5089465;28;20503;-49
2023/07/01 05:32:34;;;;;;;;;;;;;;;15.48;100.00;100482.19;5109330;28;19912;-45
2023/07/01 05:34:59;;;;;;;;;;;;;;;15.51;100.00;100487.38;5066764;28;19985;-43
2023/07/01 05:37:25;;;;;;;;;;;;;;;15.48;100.00;100477.03;5103819;28;19920;-45
2023/07/01 05:39:50;;;;;;;;;;;;;;;15.49;100.00;100470.97;5096421;28;19970;-45
2023/07/01 05:42:15;;;;;;;;;;;;;;;15.54;100.00;100478.75;5105576;28;19916;-44
2023/07/01 05:44:40;;;;;;;;;;;;;;;15.50;100.00;100480.47;5102357;28;19966;-44
2023/07/01 05:47:06;;;;;;;;;;;;;;;15.52;100.00;100473.56;5075985;28;20378;-45
2023/07/01 05:49:31;;;;;;;;;;;;;;;15.54;100.00;100479.63;5083064;28;19916;-48
2023/07/01 05:51:56;;;;;;;;;;;;;;;15.56;100.00;100464.94;5102853;28;19922;-45
2023/07/01 05:54:21;;;;;;;;;;;;;;;15.59;100.00;100470.97;5099398;28;19963;-46
2023/07/01 05:56:46;;;;;;;;;;;;;;;15.62;100.00;100478.75;5103967;28;19930;-46
2023/07/01 05:59:13;;;;;;;;;;;;;;;15.64;100.00;100472.75;5098170;28;19923;-43
2023/07/01 06:01:38;;;;;;;;;;;;;;;15.66;100.00;100477.94;5102727;28;19915;-45
2023/07/01 06:04:04;;;;;;;;;;;;;;;15.60;100.00;100463.22;5078961;28;20006;-45
2023/07/01 06:06:29;;;;;;;;;;;;;;;15.64;100.00;100466.69;5108268;28;20290;-45
2023/07/01 06:08:54;;;;;;;;;;;;;;;15.62;100.00;100464.09;5104712;28;20019;-46
2023/07/01 06:11:19;;;;;;;;;;;;;;;15.66;100.00;100463.25;5088074;28;19973;-46
2023/07/01 06:13:45;;;;;;;;;;;;;;;15.65;100.00;100463.22;5101368;28;19915;-48
2023/07/01 06:16:10;;;;;;;;;;;;;;;15.71;100.00;100463.22;5108915;28;20262;-48
2023/07/01 06:18:36;;;;;;;;;;;;;;;15.72;100.00;100459.81;5099569;28;19969;-49
2023/07/01 06:21:03;;;;;;;;;;;;;;;15.73;100.00;100464.13;5107479;28;19926;-48
2023/07/01 06:23:29;;;;;;;;;;;;;;;15.76;100.00;100456.34;5102783;28;19912;-48
2023/07/01 06:25:54;;;;;;;;;;;;;;;15.81;100.00;100457.19;5102863;28;19916;-46
2023/07/01 06:28:19;;;;;;;;;;;;;;;15.86;100.00;100452.88;5102490;28;20030;-55
2023/07/01 06:30:44;;;;;;;;;;;;;;;15.88;100.00;100450.28;5109320;28;19927;-57
2023/07/01 06:33:10;;;;;;;;;;;;;;;15.95;100.00;100449.41;5100559;28;20440;-57
2023/07/01 06:35:35;;;;;;;;;;;;;;;16.03;100.00;100458.94;5105657;28;20278;-57
2023/07/01 06:38:01;;;;;;;;;;;;;;;16.05;100.00;100453.75;5100913;28;20374;-57
2023/07/01 06:40:26;;;;;;;;;;;;;;;16.03;100.00;100452.88;5105584;28;20286;-57
2023/07/01 06:42:51;;;;;;;;;;;;;;;16.00;100.00;100453.72;5093399;28;19921;-57
2023/07/01 06:45:17;;;;;;;;;;;;;;;15.99;100.00;100453.75;5083580;28;19923;-57
2023/07/01 06:47:42;;;;;;;;;;;;;;;16.04;100.00;100450.28;5099649;28;19920;-55
2023/07/01 06:50:08;;;;;;;;;;;;;;;16.00;100.00;100451.13;5101614;28;20452;-55
2023/07/01 06:52:33;;;;;;;;;;;;;;;16.08;100.00;100451.16;5098727;28;19917;-56
2023/07/01 06:54:58;;;;;;;;;;;;;;;16.03;100.00;100445.97;5099548;28;20447;-56
2023/07/01 06:57:24;;;;;;;;;;;;;;;16.12;100.00;100447.69;5098500;28;19916;-56
2023/07/01 06:59:49;;;;;;;;;;;;;;;16.15;100.00;100445.09;5105184;28;19922;-57
2023/07/01 07:02:16;;;;;;;;;;;;;;;16.21;100.00;100450.28;5106551;28;19920;-55
2023/07/01 07:04:42;;;;;;;;;;;;;;;16.27;100.00;100452.00;5109004;28;19916;-57
2023/07/01 07:07:07;;;;;;;;;;;;;;;16.25;100.00;100451.13;5105061;28;20496;-56
2023/07/01 07:09:32;;;;;;;;;;;;;;;16.24;100.00;100445.06;5107197;28;20010;-57
2023/07/01 07:11:57;;;;;;;;;;;;;;;16.26;100.00;100452.84;5103328;28;19961;-56
2023/07/01 07:14:23;;;;;;;;;;;;;;;16.31;100.00;100444.19;5105576;28;19970;-56
2023/07/01 07:16:48;;;;;;;;;;;;;;;16.27;100.00;100444.22;5101403;28;19919;-56
2023/07/01 07:19:14;;;;;;;;;;;;;;;16.30;100.00;100441.59;5102055;28;19955;-57
2023/07/01 07:21:40;;;;;;;;;;;;;;;16.32;100.00;100443.34;5097955;28;20011;-57
2023/07/01 07:24:05;;;;;;;;;;;;;;;16.28;100.00;100436.41;5104173;28;19916;-56
2023/07/01 07:26:30;;;;;;;;;;;;;;;16.26;100.00;100439.88;5100048;28;19920;-56
2023/07/01 07:28:56;;;;;;;;;;;;;;;16.27;100.00;100439.03;5107760;28;19920;-57
2023/07/01 07:31:21;;;;;;;;;;;;;;;16.25;100.00;100439.00;5104596;28;19947;-56
2023/07/01 07:33:46;;;;;;;;;;;;;;;16.26;100.00;100445.94;5102228;28;19966;-57
2023/07/01 07:36:11;;;;;;;;;;;;;;;16.30;100.00;100437.25;5099871;28;19917;-55
2023/07/01 07:38:36;;;;;;;;;;;;;;;16.33;100.00;100436.41;5069117;28;20437;-57
2023/07/01 07:41:03;;;;;;;;;;;;;;;16.32;100.00;100432.09;5097169;28;19916;-56
2023/07/01 07:43:28;;;;;;;;;;;;;;;16.39;100.00;100438.13;5099586;28;20030;-56
2023/07/01 07:45:53;;;;;;;;;;;;;;;16.38;100.00;100429.50;5099452;28;20003;-56
2023/07/01 07:48:18;;;;;;;;;;;;;;;16.42;100.00;100431.19;5066432;28;20395;-55
2023/07/01 07:50:44;;;;;;;;;;;;;;;16.46;100.00;100432.06;5092614;28;19916;-56
2023/07/01 07:53:09;;;;;;;;;;;;;;;16.42;100.00;100436.38;5084432;28;19923;-55
2023/07/01 07:55:34;;;;;;;;;;;;;;;16.39;100.00;100426.03;5102932;28;19926;-56
2023/07/01 07:58:00;;;;;;;;;;;;;;;16.41;100.00;100429.47;5107512;28;20135;-56
2023/07/01 08:00:25;;;;;;;;;;;;;;;16.42;100.00;100428.59;5098139;28;20011;-56
2023/07/01 08:02:51;;;;;;;;;;;;;;;16.44;100.00;100428.56;5106733;28;20007;-57
2023/07/01 08:05:16;;;;;;;;;;;;;;;16.40;100.00;100429.47;5105763;28;19955;-57
2023/07/01 08:07:42;;;;;;;;;;;;;;;16.40;100.00;100430.34;5105792;28;19920;-56
2023/07/01 08:10:07;;;;;;;;;;;;;;;16.46;100.00;100427.72;5106002;28;19916;-56
2023/07/01 08:12:32;;;;;;;;;;;;;;;16.46;100.00;100416.47;5108542;28;19915;-57
2023/07/01 08:14:57;;;;;;;;;;;;;;;16.45;100.00;100420.81;5107483;28;19926;-57
2023/07/01 08:17:23;;;;;;;;;;;;;;;16.52;100.00;100426.84;5105820;28;19915;-58
2023/07/01 08:19:48;;;;;;;;;;;;;;;16.53;100.00;100415.59;5099092;28;19968;-55
2023/07/01 08:22:13;;;;;;;;;;;;;;;16.56;100.00;100413.88;5083221;28;19920;-56
2023/07/01 08:24:38;;;;;;;;;;;;;;;16.61;100.00;100413.81;5080274;28;19916;-55
2023/07/01 08:27:04;;;;;;;;;;;;;;;16.70;100.00;100420.72;5103231;28;19963;-57
2023/07/01 08:29:29;;;;;;;;;;;;;;;16.75;100.00;100417.28;5106731;28;19931;-56
2023/07/01 08:31:54;;;;;;;;;;;;;;;16.85;100.00;100413.75;5106144;28;19928;-57
2023/07/01 08:34:19;;;;;;;;;;;;;;;16.89;100.00;100410.28;5104132;28;19930;-56
2023/07/01 08:36:45;;;;;;;;;;;;;;;16.98;100.00;100419.75;5098382;28;20014;-57
2023/07/01 08:39:10;;;;;;;;;;;;;;;17.08;100.00;100410.19;5096806;28;19966;-57
2023/07/01 08:41:41;;;;;;;;;;;;;;;17.16;100.00;100416.19;5098764;28;19995;-57
2023/07/01 08:44:08;;;;;;;;;;;;;;;17.19;100.00;100416.19;5097984;28;19930;-58
2023/07/01 08:46:33;;;;;;;;;;;;;;;17.23;100.00;100411.81;5110505;28;19999;-57
2023/07/01 08:49:00;;;;;;;;;;;;;;;17.22;100.00;100416.13;5102711;28;20011;-57
2023/07/01 08:51:31;;;;;;;;;;;;;;;17.22;100.00;100415.28;5110060;28;19961;-57
2023/07/01 08:53:58;;;;;;;;;;;;;;;17.30;100.00;100409.19;5098368;28;20348;-57
2023/07/01 08:56:23;;;;;;;;;;;;;;;17.21;100.00;100417.03;5109304;28;20286;-57
2023/07/01 08:58:49;;;;;;;;;;;;;;;17.24;100.00;100404.03;5105984;28;20655;-57
2023/07/01 09:01:14;;;;;;;;;;;;;;;17.27;100.00;100406.59;5106975;28;19915;-57
2023/07/01 09:03:40;;;;;;;;;;;;;;;17.36;100.00;100409.13;5106227;28;19923;-56
2023/07/01 09:06:06;;;;;;;;;;;;;;;17.39;100.00;100416.03;5105574;28;19918;-56
2023/07/01 09:08:40;;;;;;;;;;;;;;;17.34;100.00;100410.00;5105602;28;19934;-57
2023/07/01 09:11:06;;;;;;;;;;;;;;;17.34;100.00;100410.00;5107211;28;20018;-44
2023/07/01 09:13:31;;;;;;;;;;;;;;;17.40;100.00;100407.34;5088109;28;20003;-46
2023/07/01 09:15:57;;;;;;;;;;;;;;;17.49;100.00;100409.03;5105589;28;19922;-46
2023/07/01 09:18:23;;;;;;;;;;;;;;;17.55;100.00;100406.41;5068476;28;19972;-46
2023/07/01 09:20:51;;;;;;;;;;;;;;;17.53;100.00;100406.38;5094816;28;20007;-44
2023/07/01 09:23:29;;;;;;;;;;;;;;;17.54;100.00;100405.53;5085411;28;19920;-48
2023/07/01 09:26:17;;;;;;;;;;;;;;;17.60;100.00;100402.91;5096033;28;19919;-45
2023/07/01 09:28:46;;;;;;;;;;;;;;;17.63;100.00;100404.59;5099615;28;19932;-44
2023/07/01 09:31:13;;;;;;;;;;;;;;;17.68;100.00;100405.44;5109376;28;19928;-45
2023/07/01 09:33:38;;;;;;;;;;;;;;;17.69;100.00;100400.19;5104052;28;19911;-44
2023/07/01 09:36:04;;;;;;;;;;;;;;;17.72;100.00;100401.09;5107313;28;20267;-48
2023/07/01 09:38:30;;;;;;;;;;;;;;;17.83;100.00;100394.03;5110241;28;19960;-44
2023/07/01 09:41:11;;;;;;;;;;;;;;;17.78;100.00;100398.44;5108377;28;19958;-46
2023/07/01 09:43:36;;;;;;;;;;;;;;;17.75;100.00;100394.13;5109270;28;19926;-45
2023/07/01 09:46:01;;;;;;;;;;;;;;;17.79;100.00;100397.56;5105317;28;19998;-48
2023/07/01 09:48:27;;;;;;;;;;;;;;;17.79;100.00;100394.97;5108599;28;19920;-44
2023/07/01 09:50:52;;;;;;;;;;;;;;;17.82;100.00;100382.78;5105604;28;19916;-45
2023/07/01 09:53:26;;;;;;;;;;;;;;;17.79;100.00;100388.03;5113735;28;19916;-47
2023/07/01 09:55:52;;;;;;;;;;;;;;;17.80;100.00;100394.09;5098093;28;20355;-46
2023/07/01 09:58:17;;;;;;;;;;;;;;;17.78;100.00;100393.25;5106436;28;19918;-45
2023/07/01 10:00:42;;;;;;;;;;;;;;;17.84;100.00;100390.59;5102503;28;19920;-56
2023/07/01 10:03:08;;;;;;;;;;;;;;;17.87;100.00;100395.75;5105287;28;19927;-45
2023/07/01 10:05:33;;;;;;;;;;;;;;;17.94;100.00;100384.41;5105904;28;19916;-45
2023/07/01 10:07:59;;;;;;;;;;;;;;;17.99;100.00;100386.97;5101630;28;20431;-46
2023/07/01 10:10:24;;;;;;;;;;;;;;;18.04;100.00;100386.06;5099715;28;20282;-45
2023/07/01 10:12:51;;;;;;;;;;;;;;;18.12;100.00;100379.00;5103707;28;19986;-56
2023/07/01 10:15:18;;;;;;;;;;;;;;;18.15;100.00;100380.75;5098904;28;20006;-56
2023/07/01 10:17:47;;;;;;;;;;;;;;;18.11;100.00;100379.91;5099310;28;19916;-56
2023/07/01 10:20:31;;;;;;;;;;;;;;;18.11;100.00;100379.91;5096256;28;19912;-57
2023/07/01 10:22:58;;;;;;;;;;;;;;;18.09;100.00;100376.47;5085042;28;19916;-55
2023/07/01 10:25:30;;;;;;;;;;;;;;;18.02;100.00;100374.81;5089828;28;20093;-56
2023/07/01 10:27:58;;;;;;;;;;;;;;;18.01;100.00;100373.06;5100357;28;19939;-56
2023/07/01 10:30:24;;;;;;;;;;;;;;;18.08;100.00;100376.47;5108176;28;19943;-54
2023/07/01 10:32:49;;;;;;;;;;;;;;;18.10;100.00;100370.38;5110650;27;20281;-55
2023/07/01 10:35:15;;;;;;;;;;;;;;;18.20;100.00;100368.53;5109389;27;19916;-56
2023/07/01 10:37:40;;;;;;;;;;;;;;;18.30;100.00;100374.50;5122005;27;20377;-56
2023/07/01 10:40:26;;;;;;;;;;;;;;;18.36;100.00;100372.69;5119889;27;19911;-57
2023/07/01 10:42:51;;;;;;;;;;;;;;;18.42;100.00;100374.34;5091066;27;20381;-56
2023/07/01 10:45:16;;;;;;;;;;;;;;;18.52;100.00;100370.78;5092319;28;19969;-56
2023/07/01 10:48:01;;;;;;;;;;;;;;;18.63;100.00;100368.03;5099946;28;19958;-57
2023/07/01 10:50:27;;;;;;;;;;;;;;;18.76;100.00;100364.41;5102134;28;19919;-56
2023/07/01 10:52:55;;;;;;;;;;;;;;;18.87;100.00;100364.25;5112943;27;19915;-56
2023/07/01 10:55:39;;;;;;;;;;;;;;;18.92;100.00;100370.25;5117243;27;20583;-56
2023/07/01 10:58:14;;;;;;;;;;;;;;;18.98;100.00;100365.81;5109253;28;19916;-57
2023/07/01 11:00:40;;;;;;;;;;;;;;;19.13;100.00;100367.38;5103451;28;19938;-57
2023/07/01 11:03:24;;;;;;;;;;;;;;;19.22;100.00;100367.19;5107370;28;20365;-56
2023/07/01 11:05:59;;;;;;;;;;;;;;;19.31;100.00;100365.38;5104594;28;19920;-58
2023/07/01 11:08:27;;;;;;;;;;;;;;;19.20;100.00;100369.00;5112288;28;19916;-57
2023/07/01 11:10:53;;;;;;;;;;;;;;;19.27;100.00;100369.75;5107335;28;19915;-56
2023/07/01 11:13:18;;;;;;;;;;;;;;;19.32;100.00;100367.94;5100767;28;19922;-58
2023/07/01 11:16:04;;;;;;;;;;;;;;;19.36;100.00;100368.75;5107430;28;19912;-57
2023/07/01 11:18:41;;;;;;;;;;;;;;;19.41;100.00;100372.13;5092078;28;19920;-56
2023/07/01 11:21:08;;;;;;;;;;;;;;;19.58;100.00;100372.75;5098438;28;20077;-57
2023/07/01 11:23:33;;;;;;;;;;;;;;;19.73;100.00;100366.44;5094739;28;19912;-57
2023/07/01 11:25:59;;;;;;;;;;;;;;;19.77;100.00;100360.25;5100276;28;20018;-57
2023/07/01 11:28:31;;;;;;;;;;;;;;;19.95;100.00;100365.13;5107429;28;19923;-57
2023/07/01 11:31:07;;;;;;;;;;;;;;;20.13;100.00;100356.09;5126256;28;19919;-57
2023/07/01 11:33:32;;;;;;;;;;;;;;;20.27;100.00;100361.09;5114607;28;19952;-56
2023/07/01 11:35:57;;;;;;;;;;;;;;;20.50;100.00;100352.78;5103930;28;19990;-56
2023/07/01 11:38:24;;;;;;;;;;;;;;;20.61;100.00;100356.91;5098806;28;19923;-57
2023/07/01 11:40:50;;;;;;;;;;;;;;;20.78;100.00;100358.31;5101905;28;19918;-57
2023/07/01 11:43:18;;;;;;;;;;;;;;;20.94;100.00;100361.44;5100578;28;19963;-56
2023/07/01 11:45:46;;;;;;;;;;;;;;;20.95;100.00;100364.03;5103657;28;20349;-58
2023/07/01 11:48:11;;;;;;;;;;;;;;;20.96;100.00;100364.88;5110693;27;20010;-58
2023/07/01 11:50:49;;;;;;;;;;;;;;;20.93;100.00;100360.59;5117842;27;19951;-57
2023/07/01 11:53:14;;;;;;;;;;;;;;;20.88;100.00;100365.91;5114763;27;19972;-57
2023/07/01 11:55:39;;;;;;;;;;;;;;;20.95;100.00;100366.63;5102814;28;19979;-57
2023/07/01 11:58:23;;;;;;;;;;;;;;;21.01;100.00;100371.72;5108111;27;19915;-56
2023/07/01 12:00:48;;;;;;;;;;;;;;;20.86;100.00;100375.53;5110350;27;19912;-56
2023/07/01 12:03:13;;;;;;;;;;;;;;;20.64;100.00;100373.44;5096262;28;19915;-57
2023/07/01 12:05:42;;;;;;;;;;;;;;;20.28;100.00;100376.72;5110033;27;20596;-55
2023/07/01 12:08:08;;;;;;;;;;;;;;;19.99;100.00;100377.25;5109358;28;19986;-56
2023/07/01 12:10:35;;;;;;;;;;;;;;;19.75;100.00;100382.91;5096914;28;19923;-56
2023/07/01 12:13:00;;;;;;;;;;;;;;;19.51;100.00;100371.09;5109052;28;19938;-57
2023/07/01 12:15:26;;;;;;;;;;;;;;;19.42;100.00;100376.50;5107558;27;19912;-58
2023/07/01 12:17:53;;;;;;;;;;;;;;;19.27;100.00;100383.63;5119352;27;20560;-58
2023/07/01 12:20:20;;;;;;;;;;;;;;;19.08;100.00;100389.16;5120649;27;19916;-57
2023/07/01 12:22:45;;;;;;;;;;;;;;;18.93;100.00;100387.63;5114564;27;19912;-58
2023/07/01 12:25:10;;;;;;;;;;;;;;;18.82;100.00;100385.16;5111088;27;19927;-57
2023/07/01 12:27:36;;;;;;;;;;;;;;;18.85;100.00;100384.25;5103451;28;19924;-56